Time;durP1;ratioP1;P1;durP2;ratioP2;P2;SDS_P1;SDS_P2;PMS_P1;PMS_P2;Temp;Humidity;BMP_temperature;BMP_pressure;BME280_temperature;BME280_humidity;BME280_pressure;Samples;Min_cycle;Max_cycle;Signal;HPM_P1;HPM_P2
2022/11/23 00:01:49;;;;;;;0.40;0.40;;;18.10;68.50;;;;;;6181743;23;46263;-69
2022/11/23 00:04:16;;;;;;;1.27;0.38;;;18.20;68.50;;;;;;6182494;23;45296;-69
2022/11/23 00:06:43;;;;;;;1.10;0.50;;;18.20;68.50;;;;;;6181503;22;45368;-69
2022/11/23 00:09:12;;;;;;;0.45;0.32;;;18.10;68.40;;;;;;6180872;23;45358;-68
2022/11/23 00:11:39;;;;;;;1.02;0.30;;;18.10;68.50;;;;;;6180364;23;47229;-69
2022/11/23 00:14:05;;;;;;;0.40;0.30;;;18.10;68.50;;;;;;6180338;23;46275;-69
2022/11/23 00:16:32;;;;;;;1.45;0.50;;;18.10;68.50;;;;;;6180907;23;45228;-69
2022/11/23 00:19:01;;;;;;;0.75;0.40;;;18.10;68.50;;;;;;6181678;23;45216;-68
2022/11/23 00:21:30;;;;;;;1.02;0.43;;;18.20;68.60;;;;;;6180274;23;46816;-69
2022/11/23 00:23:57;;;;;;;0.73;0.25;;;18.10;68.50;;;;;;6181945;23;45372;-68
2022/11/23 00:26:25;;;;;;;0.65;0.30;;;18.10;68.50;;;;;;6181347;23;45360;-68
2022/11/23 00:28:52;;;;;;;0.82;0.47;;;18.20;68.50;;;;;;6182259;23;45396;-69
2022/11/23 00:31:20;;;;;;;0.85;0.40;;;18.10;68.50;;;;;;6180866;23;46270;-68
2022/11/23 00:33:51;;;;;;;1.08;0.40;;;18.20;68.50;;;;;;6182424;23;45289;-70
2022/11/23 00:36:18;;;;;;;0.28;0.20;;;18.20;68.50;;;;;;6182055;23;45368;-70
2022/11/23 00:38:45;;;;;;;0.73;0.30;;;18.20;68.60;;;;;;6181662;23;45415;-69
2022/11/23 00:41:14;;;;;;;0.35;0.25;;;18.10;68.50;;;;;;6181322;23;47743;-68
2022/11/23 00:43:43;;;;;;;0.88;0.20;;;18.20;68.70;;;;;;6180202;23;46260;-69
2022/11/23 00:46:14;;;;;;;1.08;0.47;;;18.20;68.60;;;;;;6181467;23;45352;-69
2022/11/23 00:48:40;;;;;;;0.82;0.43;;;18.10;68.50;;;;;;6181692;23;45202;-69
2022/11/23 00:51:09;;;;;;;1.98;0.28;;;18.10;68.50;;;;;;6180853;23;46285;-69
2022/11/23 00:53:36;;;;;;;1.13;0.40;;;18.10;68.60;;;;;;6180693;23;45394;-69
2022/11/23 00:56:04;;;;;;;0.60;0.30;;;18.10;68.50;;;;;;6181113;23;45373;-68
2022/11/23 00:58:31;;;;;;;0.68;0.30;;;18.10;68.60;;;;;;6182242;23;45487;-69
2022/11/23 01:01:04;;;;;;;2.47;0.60;;;18.10;68.60;;;;;;6180106;23;46296;-68
2022/11/23 01:03:32;;;;;;;0.75;0.30;;;18.10;68.70;;;;;;6181909;23;45442;-69
2022/11/23 01:06:03;;;;;;;1.05;0.47;;;18.10;68.70;;;;;;6181437;23;45222;-68
2022/11/23 01:08:31;;;;;;;0.52;0.38;;;18.10;68.60;;;;;;6181898;22;45482;-69
2022/11/23 01:11:03;;;;;;;1.23;0.45;;;18.10;68.70;;;;;;6180726;23;47005;-69
2022/11/23 01:13:29;;;;;;;1.27;0.45;;;18.20;68.80;;;;;;6180772;23;45220;-69
2022/11/23 01:15:56;;;;;;;0.35;0.30;;;18.20;68.70;;;;;;6181512;23;45368;-69
2022/11/23 01:18:25;;;;;;;0.38;0.38;;;18.10;68.70;;;;;;6181590;23;45324;-68
2022/11/23 01:20:52;;;;;;;0.93;0.40;;;18.10;68.60;;;;;;6181382;23;46585;-70
2022/11/23 01:23:19;;;;;;;1.00;0.32;;;18.20;68.70;;;;;;6183175;23;45247;-69
2022/11/23 01:25:46;;;;;;;1.15;0.47;;;18.10;68.60;;;;;;6182513;23;45250;-68
2022/11/23 01:28:13;;;;;;;1.15;0.50;;;18.20;68.70;;;;;;6183353;23;45399;-68
2022/11/23 01:30:40;;;;;;;0.82;0.30;;;18.20;68.70;;;;;;6181824;23;45493;-71
2022/11/23 01:33:06;;;;;;;0.90;0.63;;;18.10;68.60;;;;;;6182211;23;45265;-68
2022/11/23 01:35:34;;;;;;;0.80;0.38;;;18.20;68.70;;;;;;6182634;23;45367;-70
2022/11/23 01:38:01;;;;;;;1.40;0.52;;;18.20;68.70;;;;;;6183091;23;45244;-69
2022/11/23 01:40:28;;;;;;;1.80;0.47;;;18.20;68.70;;;;;;6181973;23;47919;-69
2022/11/23 01:42:57;;;;;;;1.17;0.35;;;18.20;68.70;;;;;;6181302;23;45320;-68
2022/11/23 01:45:37;;;;;;;1.50;0.40;;;18.10;68.70;;;;;;6182983;23;45289;-69
2022/11/23 01:48:09;;;;;;;0.88;0.40;;;18.10;68.70;;;;;;6182660;23;45386;-68
2022/11/23 01:50:38;;;;;;;2.08;0.30;;;18.10;68.70;;;;;;6182040;23;47236;-70
2022/11/23 01:53:06;;;;;;;1.88;0.30;;;18.10;68.70;;;;;;6180913;23;45333;-69
2022/11/23 01:55:34;;;;;;;1.05;0.57;;;18.10;68.70;;;;;;6182880;23;45377;-69
2022/11/23 01:58:03;;;;;;;1.45;0.50;;;18.10;68.80;;;;;;6183360;23;45319;-68
2022/11/23 02:00:29;;;;;;;1.05;0.30;;;18.10;68.70;;;;;;6181408;23;47216;-69
2022/11/23 02:02:59;;;;;;;1.10;0.55;;;18.10;68.70;;;;;;6182866;23;45232;-68
2022/11/23 02:05:32;;;;;;;0.90;0.30;;;18.10;68.70;;;;;;6181834;23;45226;-69
2022/11/23 02:08:01;;;;;;;0.85;0.50;;;18.10;68.80;;;;;;6182718;23;45305;-68
2022/11/23 02:10:30;;;;;;;0.80;0.60;;;18.10;68.70;;;;;;6180970;23;45379;-68
2022/11/23 02:13:00;;;;;;;1.40;0.35;;;18.10;68.70;;;;;;6182565;23;45283;-70
2022/11/23 02:15:26;;;;;;;1.88;0.57;;;18.10;68.70;;;;;;6182180;23;45329;-68
2022/11/23 02:17:53;;;;;;;0.63;0.30;;;18.10;68.70;;;;;;6182654;23;45563;-69
2022/11/23 02:20:20;;;;;;;2.55;0.40;;;18.10;68.70;;;;;;6181905;23;46627;-69
2022/11/23 02:22:57;;;;;;;1.58;0.40;;;18.20;68.80;;;;;;6182232;23;45272;-68
2022/11/23 02:25:34;;;;;;;1.55;0.60;;;18.20;68.70;;;;;;6183015;23;45296;-69
2022/11/23 02:28:03;;;;;;;1.85;0.50;;;18.10;68.70;;;;;;6182361;23;45160;-70
2022/11/23 02:30:31;;;;;;;0.63;0.22;;;18.10;68.60;;;;;;6181959;23;45353;-69
2022/11/23 02:32:58;;;;;;;0.47;0.22;;;18.10;68.60;;;;;;6182508;23;45272;-68
2022/11/23 02:35:25;;;;;;;2.22;0.50;;;18.20;68.70;;;;;;6182017;23;45265;-69
2022/11/23 02:37:53;;;;;;;2.72;0.45;;;18.10;68.50;;;;;;6182709;23;45562;-69
2022/11/23 02:40:28;;;;;;;2.30;0.60;;;18.10;68.60;;;;;;6181103;23;46371;-68
2022/11/23 02:42:55;;;;;;;1.58;0.50;;;18.10;68.70;;;;;;6182261;23;45304;-68
2022/11/23 02:45:30;;;;;;;2.10;0.50;;;18.20;68.70;;;;;;6182255;23;45251;-69
2022/11/23 02:47:57;;;;;;;1.30;0.45;;;18.10;68.60;;;;;;6182920;23;45259;-69
2022/11/23 02:50:23;;;;;;;0.75;0.35;;;18.20;68.70;;;;;;6181592;23;45332;-68
2022/11/23 02:52:50;;;;;;;1.00;0.40;;;18.10;68.60;;;;;;6180574;23;45233;-69
2022/11/23 02:55:17;;;;;;;1.42;0.50;;;18.20;68.70;;;;;;6182506;23;45261;-69
2022/11/23 02:57:44;;;;;;;2.05;0.43;;;18.10;68.60;;;;;;6182361;23;45351;-69
2022/11/23 03:00:12;;;;;;;1.50;0.50;;;18.10;68.60;;;;;;6181899;23;46488;-69
2022/11/23 03:02:40;;;;;;;2.45;0.40;;;18.10;68.60;;;;;;6182809;23;45240;-69
2022/11/23 03:05:07;;;;;;;1.23;0.40;;;18.10;68.50;;;;;;6182155;23;45249;-69
2022/11/23 03:07:35;;;;;;;2.88;0.40;;;18.10;68.60;;;;;;6182652;22;45553;-69
2022/11/23 03:10:02;;;;;;;2.30;0.63;;;18.10;68.70;;;;;;6181147;23;48289;-69
2022/11/23 03:12:29;;;;;;;1.63;0.82;;;18.10;68.50;;;;;;6182398;23;45288;-69
2022/11/23 03:14:56;;;;;;;1.05;0.35;;;18.10;68.60;;;;;;6182240;23;45193;-69
2022/11/23 03:17:23;;;;;;;3.83;0.50;;;18.10;68.70;;;;;;6182490;23;45189;-70
2022/11/23 03:19:51;;;;;;;2.30;0.70;;;18.10;68.60;;;;;;6181935;23;46358;-71
2022/11/23 03:22:18;;;;;;;0.65;0.43;;;18.10;68.70;;;;;;6181893;23;45596;-68
2022/11/23 03:24:45;;;;;;;1.30;0.50;;;18.10;68.60;;;;;;6183000;23;45416;-69
2022/11/23 03:27:12;;;;;;;2.17;0.70;;;18.10;68.70;;;;;;6181897;23;45393;-68
2022/11/23 03:29:39;;;;;;;2.90;0.90;;;18.10;68.70;;;;;;6182528;23;45434;-69
2022/11/23 03:32:06;;;;;;;2.42;0.82;;;18.10;68.70;;;;;;6180687;23;45332;-69
2022/11/23 03:34:33;;;;;;;3.08;0.80;;;18.10;68.70;;;;;;6182203;23;45434;-69
2022/11/23 03:37:01;;;;;;;2.65;0.80;;;18.10;68.70;;;;;;6182572;23;45388;-69
2022/11/23 03:39:28;;;;;;;1.45;0.80;;;18.10;68.70;;;;;;6181856;23;47476;-68
2022/11/23 03:41:55;;;;;;;2.45;0.50;;;18.10;68.70;;;;;;6181972;23;45268;-68
2022/11/23 03:44:21;;;;;;;1.63;0.55;;;18.20;68.70;;;;;;6178847;23;45423;-69
2022/11/23 03:46:49;;;;;;;2.78;1.00;;;18.10;68.60;;;;;;6182481;23;45213;-68
2022/11/23 03:49:16;;;;;;;2.28;0.93;;;18.20;68.70;;;;;;6182796;23;46802;-69
2022/11/23 03:51:42;;;;;;;1.65;0.70;;;18.10;68.60;;;;;;6180363;23;45271;-68
2022/11/23 03:54:11;;;;;;;2.08;0.80;;;18.20;68.70;;;;;;6180862;23;45284;-69
2022/11/23 03:56:37;;;;;;;1.42;0.60;;;18.10;68.60;;;;;;6181563;23;45454;-70
2022/11/23 03:59:04;;;;;;;1.42;0.75;;;18.10;68.50;;;;;;6182459;23;46350;-69
2022/11/23 04:01:31;;;;;;;1.30;0.70;;;18.10;68.60;;;;;;6181408;23;45356;-68
2022/11/23 04:03:58;;;;;;;2.15;0.68;;;18.20;68.60;;;;;;6182468;23;45384;-69
2022/11/23 04:06:25;;;;;;;2.55;0.82;;;18.20;68.50;;;;;;6181483;22;45351;-69
2022/11/23 04:08:51;;;;;;;1.67;0.60;;;18.20;68.50;;;;;;6181690;23;46426;-69
2022/11/23 04:11:19;;;;;;;0.65;0.45;;;18.20;68.60;;;;;;6181156;23;45605;-69
2022/11/23 04:13:46;;;;;;;1.58;0.80;;;18.10;68.40;;;;;;6182392;23;45319;-69
2022/11/23 04:16:13;;;;;;;2.25;0.77;;;18.10;68.50;;;;;;6182149;23;45242;-69
2022/11/23 04:18:40;;;;;;;2.38;0.55;;;18.20;68.50;;;;;;6182321;23;47332;-71
2022/11/23 04:21:07;;;;;;;2.17;0.70;;;18.10;68.50;;;;;;6179769;23;45496;-69
2022/11/23 04:23:34;;;;;;;2.13;0.70;;;18.10;68.60;;;;;;6181108;23;45371;-70
2022/11/23 04:26:00;;;;;;;1.35;0.52;;;18.10;68.50;;;;;;6180788;23;45280;-69
2022/11/23 04:28:29;;;;;;;1.65;0.55;;;18.10;68.60;;;;;;6181612;23;45667;-68
2022/11/23 04:30:57;;;;;;;3.67;0.82;;;18.10;68.50;;;;;;6180408;23;45332;-68
2022/11/23 04:33:24;;;;;;;2.08;0.70;;;18.10;68.60;;;;;;6180552;23;45256;-70
2022/11/23 04:35:51;;;;;;;1.45;0.68;;;18.10;68.50;;;;;;6181836;23;45412;-69
2022/11/23 04:38:18;;;;;;;1.35;0.65;;;18.10;68.50;;;;;;6181386;23;46607;-69
2022/11/23 04:40:48;;;;;;;1.85;0.60;;;18.10;68.50;;;;;;6181107;23;45541;-68
2022/11/23 04:43:15;;;;;;;1.88;0.60;;;18.10;68.50;;;;;;6181410;23;45300;-69
2022/11/23 04:45:43;;;;;;;0.98;0.52;;;18.10;68.40;;;;;;6181368;23;45184;-69
2022/11/23 04:48:10;;;;;;;0.93;0.47;;;18.10;68.40;;;;;;6181938;23;46264;-69
2022/11/23 04:50:38;;;;;;;2.17;0.57;;;18.10;68.40;;;;;;6180393;23;45372;-68
2022/11/23 04:53:05;;;;;;;2.83;0.80;;;18.10;68.40;;;;;;6181504;23;45533;-69
2022/11/23 04:55:32;;;;;;;1.77;0.60;;;18.10;68.40;;;;;;6181977;23;45197;-69
2022/11/23 04:57:59;;;;;;;2.00;0.60;;;18.10;68.40;;;;;;6183066;23;45435;-69
2022/11/23 05:00:26;;;;;;;2.20;0.63;;;18.10;68.40;;;;;;6181924;23;45311;-69
2022/11/23 05:02:54;;;;;;;2.35;0.82;;;18.10;68.40;;;;;;6182673;23;45332;-69
2022/11/23 05:05:21;;;;;;;1.90;0.70;;;18.20;68.40;;;;;;6183081;23;45301;-69
2022/11/23 05:07:48;;;;;;;1.73;0.63;;;18.20;68.30;;;;;;6182521;22;47442;-69
2022/11/23 05:10:15;;;;;;;1.40;0.55;;;18.10;68.20;;;;;;6182078;23;45280;-69
2022/11/23 05:12:42;;;;;;;1.15;0.45;;;18.20;68.40;;;;;;6183399;23;45229;-68
2022/11/23 05:15:11;;;;;;;1.65;0.57;;;18.10;68.20;;;;;;6182523;23;45443;-69
2022/11/23 05:17:38;;;;;;;1.08;0.52;;;18.10;68.30;;;;;;6183050;23;48175;-68
2022/11/23 05:20:07;;;;;;;1.67;0.57;;;18.10;68.20;;;;;;6182152;23;45212;-68
2022/11/23 05:22:34;;;;;;;2.13;0.68;;;18.10;68.30;;;;;;6183621;23;45276;-68
2022/11/23 05:25:01;;;;;;;2.63;0.60;;;18.10;68.30;;;;;;6182646;23;45352;-70
2022/11/23 05:27:27;;;;;;;1.58;0.60;;;18.10;68.60;;;;;;6182182;23;46378;-69
2022/11/23 05:29:54;;;;;;;1.80;0.60;;;18.10;68.30;;;;;;6182658;23;45238;-69
2022/11/23 05:32:21;;;;;;;2.13;0.63;;;18.10;68.30;;;;;;6181878;23;45315;-68
2022/11/23 05:34:48;;;;;;;2.15;0.73;;;18.10;68.30;;;;;;6183120;23;45244;-68
2022/11/23 05:37:17;;;;;;;1.80;0.60;;;18.10;68.50;;;;;;6182297;23;48573;-69
2022/11/23 05:39:44;;;;;;;1.27;0.60;;;18.00;68.30;;;;;;6182973;23;45373;-69
2022/11/23 05:42:11;;;;;;;1.73;0.63;;;18.10;68.30;;;;;;6181342;23;45292;-69
2022/11/23 05:44:37;;;;;;;1.60;0.57;;;18.10;68.40;;;;;;6181898;23;45371;-69
2022/11/23 05:47:04;;;;;;;2.25;0.63;;;18.10;68.40;;;;;;6182369;23;47288;-69
2022/11/23 05:49:31;;;;;;;2.35;0.60;;;18.10;68.40;;;;;;6182160;23;45212;-69
2022/11/23 05:51:58;;;;;;;1.63;0.55;;;18.10;68.40;;;;;;6181893;23;45275;-70
2022/11/23 05:54:26;;;;;;;0.93;0.43;;;18.10;68.40;;;;;;6181702;23;45514;-69
2022/11/23 05:56:53;;;;;;;1.92;0.57;;;18.10;68.40;;;;;;6182041;23;48092;-69
2022/11/23 05:59:20;;;;;;;2.55;0.50;;;18.10;68.30;;;;;;6182776;23;45300;-68
2022/11/23 06:01:47;;;;;;;0.88;0.35;;;18.10;68.40;;;;;;6181590;23;45304;-69
2022/11/23 06:04:14;;;;;;;1.50;0.40;;;18.10;68.30;;;;;;6183577;23;45221;-70
2022/11/23 06:06:40;;;;;;;1.67;0.63;;;18.10;68.30;;;;;;6181084;22;47350;-68
2022/11/23 06:09:07;;;;;;;1.67;0.60;;;18.10;68.30;;;;;;6182788;23;45344;-69
2022/11/23 06:11:35;;;;;;;2.83;0.70;;;18.10;68.20;;;;;;6182076;23;45309;-70
2022/11/23 06:14:02;;;;;;;3.00;0.80;;;18.20;68.30;;;;;;6180921;23;45450;-68
2022/11/23 06:16:29;;;;;;;1.70;0.50;;;18.20;68.30;;;;;;6182068;23;46418;-69
2022/11/23 06:18:56;;;;;;;1.27;0.50;;;18.20;68.30;;;;;;6182343;23;45271;-69
2022/11/23 06:21:23;;;;;;;1.70;0.65;;;18.20;68.20;;;;;;6180692;23;45256;-69
2022/11/23 06:23:49;;;;;;;1.73;0.40;;;18.20;68.20;;;;;;6182390;23;45404;-69
2022/11/23 06:26:16;;;;;;;2.50;0.57;;;18.10;68.20;;;;;;6179913;23;47426;-69
2022/11/23 06:28:45;;;;;;;1.40;0.55;;;18.10;68.10;;;;;;6182490;23;45331;-69
2022/11/23 06:31:11;;;;;;;1.67;0.65;;;18.10;68.20;;;;;;6181317;23;45431;-68
2022/11/23 06:33:38;;;;;;;1.88;0.85;;;18.10;68.10;;;;;;6182650;23;45429;-68
2022/11/23 06:36:06;;;;;;;3.20;0.80;;;18.10;68.20;;;;;;6181172;23;45436;-69
2022/11/23 06:38:33;;;;;;;1.73;0.70;;;18.10;68.20;;;;;;6182725;23;45153;-69
2022/11/23 06:41:00;;;;;;;1.77;0.82;;;18.10;68.20;;;;;;6181731;23;45333;-68
2022/11/23 06:43:27;;;;;;;2.30;0.63;;;18.00;68.20;;;;;;6181371;23;45356;-69
2022/11/23 06:45:56;;;;;;;2.58;0.68;;;18.10;68.10;;;;;;6182392;23;46966;-69
2022/11/23 06:48:23;;;;;;;0.70;0.45;;;18.10;68.20;;;;;;6181809;23;45675;-68
2022/11/23 06:50:49;;;;;;;0.65;0.40;;;18.10;68.20;;;;;;6181615;23;45304;-68
2022/11/23 06:53:17;;;;;;;1.63;0.73;;;18.10;68.30;;;;;;6180666;23;45492;-69
2022/11/23 06:55:45;;;;;;;1.65;0.63;;;18.10;68.20;;;;;;6181826;23;45499;-69
2022/11/23 06:58:12;;;;;;;1.73;0.60;;;18.10;68.10;;;;;;6182595;23;45181;-69
2022/11/23 07:00:38;;;;;;;1.30;0.40;;;18.10;68.10;;;;;;6179717;23;45273;-69
2022/11/23 07:03:07;;;;;;;1.23;0.40;;;18.10;68.00;;;;;;6181628;23;45118;-68
2022/11/23 07:05:33;;;;;;;1.40;0.63;;;18.10;68.10;;;;;;6181694;23;45320;-69
2022/11/23 07:08:00;;;;;;;1.60;0.55;;;18.10;68.00;;;;;;6182507;22;45256;-68
2022/11/23 07:10:27;;;;;;;1.85;0.82;;;18.10;68.10;;;;;;6181713;23;45508;-68
2022/11/23 07:12:54;;;;;;;1.65;0.55;;;18.10;68.20;;;;;;6182012;23;45365;-69
2022/11/23 07:15:22;;;;;;;1.52;0.50;;;18.10;68.00;;;;;;6182093;23;47172;-69
2022/11/23 07:17:49;;;;;;;5.47;0.80;;;18.10;67.70;;;;;;6181636;23;45297;-69
2022/11/23 07:20:18;;;;;;;1.23;0.70;;;18.00;67.70;;;;;;6181577;23;45209;-69
2022/11/23 07:22:45;;;;;;;2.42;0.80;;;18.00;67.80;;;;;;6182805;23;45510;-68
2022/11/23 07:25:15;;;;;;;1.65;0.60;;;18.10;67.70;;;;;;6181167;23;46401;-69
2022/11/23 07:27:42;;;;;;;1.58;0.57;;;18.10;66.80;;;;;;6182568;23;45426;-69
2022/11/23 07:30:10;;;;;;;2.15;0.68;;;18.00;65.80;;;;;;6181568;23;45400;-69
2022/11/23 07:32:37;;;;;;;1.85;0.50;;;18.00;65.30;;;;;;6181551;23;45213;-68
2022/11/23 07:35:05;;;;;;;1.50;0.70;;;18.00;65.30;;;;;;6181441;23;48293;-69
2022/11/23 07:37:33;;;;;;;1.20;0.50;;;18.00;65.40;;;;;;6181968;23;45261;-68
2022/11/23 07:39:59;;;;;;;1.98;0.70;;;17.90;65.30;;;;;;6182523;23;45288;-68
2022/11/23 07:42:26;;;;;;;1.13;0.55;;;17.90;65.90;;;;;;6179889;23;45535;-70
2022/11/23 07:44:53;;;;;;;2.30;0.70;;;17.90;66.10;;;;;;6182369;23;46571;-68
2022/11/23 07:47:20;;;;;;;1.85;0.52;;;17.90;66.10;;;;;;6181410;23;45339;-69
2022/11/23 07:49:46;;;;;;;2.28;0.65;;;17.90;66.00;;;;;;6182210;23;45467;-69
2022/11/23 07:52:13;;;;;;;2.78;0.52;;;17.90;65.90;;;;;;6180974;23;45375;-68
2022/11/23 07:54:41;;;;;;;1.88;0.60;;;17.90;65.90;;;;;;6179494;23;48445;-68
2022/11/23 07:57:08;;;;;;;1.52;0.68;;;17.90;65.70;;;;;;6180891;23;45259;-68
2022/11/23 07:59:35;;;;;;;2.75;0.75;;;17.90;65.70;;;;;;6181153;23;45291;-70
2022/11/23 08:02:02;;;;;;;2.47;0.70;;;17.90;65.50;;;;;;6179581;23;45450;-69
2022/11/23 08:04:29;;;;;;;1.20;0.55;;;18.00;65.60;;;;;;6181127;23;47378;-69
2022/11/23 08:06:56;;;;;;;2.78;0.63;;;18.00;65.70;;;;;;6176883;23;45284;-69
2022/11/23 08:09:23;;;;;;;2.30;0.70;;;18.00;65.70;;;;;;6181091;23;45391;-69
2022/11/23 08:11:52;;;;;;;0.85;0.60;;;18.10;65.90;;;;;;6180155;23;45308;-69
2022/11/23 08:14:19;;;;;;;3.38;0.90;;;18.10;65.90;;;;;;6181288;23;45423;-68
2022/11/23 08:16:48;;;;;;;2.10;0.80;;;18.10;65.90;;;;;;6181656;23;45189;-68
2022/11/23 08:19:15;;;;;;;0.47;0.40;;;18.10;66.00;;;;;;6181384;23;45304;-68
2022/11/23 08:21:42;;;;;;;2.75;0.93;;;18.10;66.00;;;;;;6181075;23;45453;-69
2022/11/23 08:24:08;;;;;;;1.98;0.50;;;18.10;66.10;;;;;;6181032;23;48498;-68
2022/11/23 08:26:35;;;;;;;2.35;0.60;;;18.10;66.10;;;;;;6181425;23;45313;-69
2022/11/23 08:29:04;;;;;;;1.73;0.65;;;18.10;66.10;;;;;;6182212;23;45277;-69
2022/11/23 08:31:31;;;;;;;1.20;0.50;;;18.10;66.10;;;;;;6181400;23;45363;-69
2022/11/23 08:33:59;;;;;;;1.95;0.82;;;18.10;66.10;;;;;;6181879;23;46571;-69
2022/11/23 08:36:25;;;;;;;1.73;0.63;;;18.10;66.20;;;;;;6182695;23;45420;-70
2022/11/23 08:38:53;;;;;;;1.10;0.57;;;18.10;66.10;;;;;;6182832;23;45695;-68
2022/11/23 08:41:20;;;;;;;1.95;0.65;;;18.10;66.20;;;;;;6182211;23;45419;-70
2022/11/23 08:43:47;;;;;;;1.58;0.70;;;18.10;66.20;;;;;;6181490;23;48311;-69
2022/11/23 08:46:16;;;;;;;3.75;1.00;;;18.10;66.20;;;;;;6183834;23;45313;-70
2022/11/23 08:48:43;;;;;;;10.30;1.10;;;18.10;66.60;;;;;;6183560;23;45315;-68
2022/11/23 08:51:10;;;;;;;1.83;0.60;;;18.20;67.40;;;;;;6181135;23;45501;-69
2022/11/23 08:53:37;;;;;;;2.13;0.63;;;18.20;68.20;;;;;;6180440;23;46054;-69
2022/11/23 08:56:05;;;;;;;3.92;0.50;;;18.20;68.60;;;;;;6181880;23;45242;-69
2022/11/23 08:58:32;;;;;;;1.80;0.60;;;18.20;68.70;;;;;;6183290;23;45233;-69
2022/11/23 09:00:59;;;;;;;1.88;0.68;;;18.10;68.60;;;;;;6182223;23;45248;-69
2022/11/23 09:03:27;;;;;;;5.88;0.75;;;18.20;68.70;;;;;;6182228;23;46620;-69
2022/11/23 09:05:58;;;;;;;1.75;0.52;;;18.10;68.40;;;;;;6182705;23;45614;-69
2022/11/23 09:08:25;;;;;;;1.70;0.60;;;18.10;68.60;;;;;;6182629;23;45367;-68
2022/11/23 09:10:52;;;;;;;2.17;0.73;;;18.20;68.50;;;;;;6182120;23;45364;-69
2022/11/23 09:13:19;;;;;;;2.45;0.70;;;18.10;68.40;;;;;;6181015;23;46580;-69
2022/11/23 09:15:46;;;;;;;1.70;0.57;;;18.20;68.50;;;;;;6181047;23;45405;-69
2022/11/23 09:18:13;;;;;;;1.00;0.47;;;18.10;68.50;;;;;;6182296;23;45536;-69
2022/11/23 09:20:41;;;;;;;1.10;0.50;;;18.20;68.40;;;;;;6181690;23;45253;-69
2022/11/23 09:23:08;;;;;;;3.75;0.95;;;18.20;68.50;;;;;;6181039;23;45373;-69
2022/11/23 09:25:35;;;;;;;2.72;0.70;;;18.20;68.00;;;;;;6181393;23;45373;-68
2022/11/23 09:28:03;;;;;;;2.60;0.73;;;18.20;68.40;;;;;;6182066;23;45296;-69
2022/11/23 09:30:30;;;;;;;2.42;0.60;;;18.20;68.30;;;;;;6182315;23;45360;-68
2022/11/23 09:32:57;;;;;;;1.98;0.80;;;18.20;68.20;;;;;;6183058;23;45324;-70
2022/11/23 09:35:24;;;;;;;1.52;0.68;;;18.20;68.40;;;;;;6182508;23;45321;-69
2022/11/23 09:37:57;;;;;;;2.05;0.63;;;18.20;68.40;;;;;;6183550;23;45201;-69
2022/11/23 09:40:26;;;;;;;1.75;0.60;;;18.20;68.50;;;;;;6182426;23;45395;-70
2022/11/23 09:43:08;;;;;;;11.10;0.50;;;18.20;68.40;;;;;;6182217;23;45437;-69
2022/11/23 09:45:40;;;;;;;3.70;0.75;;;18.20;68.50;;;;;;6183065;23;45388;-69
2022/11/23 09:48:31;;;;;;;3.25;0.70;;;18.20;68.50;;;;;;6182416;23;45324;-69
2022/11/23 09:51:04;;;;;;;2.17;0.65;;;18.20;68.40;;;;;;6182004;23;45261;-69
2022/11/23 09:53:35;;;;;;;2.45;0.80;;;18.20;68.30;;;;;;6175610;23;45466;-68
2022/11/23 09:56:02;;;;;;;1.27;0.60;;;18.10;68.00;;;;;;6181139;23;45417;-69
2022/11/23 09:58:33;;;;;;;1.23;0.45;;;18.20;68.20;;;;;;6183262;23;45241;-69
2022/11/23 10:01:04;;;;;;;1.42;0.55;;;18.20;68.30;;;;;;6180183;23;45267;-70
2022/11/23 10:03:35;;;;;;;2.10;0.50;;;18.20;68.30;;;;;;6179745;23;48184;-69
2022/11/23 10:06:07;;;;;;;1.90;0.60;;;18.20;68.20;;;;;;6181236;23;45471;-68
2022/11/23 10:08:46;;;;;;;2.47;0.60;;;18.20;68.00;;;;;;6182615;23;45368;-69
2022/11/23 10:11:52;;;;;;;1.33;0.60;;;18.20;68.20;;;;;;6181452;23;45566;-69
2022/11/23 10:14:36;;;;;;;3.42;0.77;;;18.20;67.80;;;;;;6160290;23;45358;-69
2022/11/23 10:17:13;;;;;;;3.03;0.55;;;18.20;68.00;;;;;;6182264;23;45260;-69
2022/11/23 10:19:54;;;;;;;2.58;0.90;;;18.20;68.00;;;;;;6182211;23;45292;-70
2022/11/23 10:22:26;;;;;;;1.52;0.52;;;18.20;67.90;;;;;;6182511;23;45352;-69
2022/11/23 10:24:54;;;;;;;2.00;0.80;;;18.20;68.00;;;;;;6182127;23;46533;-69
2022/11/23 10:27:25;;;;;;;2.00;0.60;;;18.20;67.50;;;;;;6182712;23;45332;-68
2022/11/23 10:29:52;;;;;;;1.95;0.75;;;18.20;67.60;;;;;;6178916;23;45324;-70
2022/11/23 10:32:29;;;;;;;2.95;0.80;;;18.20;67.80;;;;;;6177796;23;45340;-70
2022/11/23 10:35:02;;;;;;;1.45;0.65;;;18.20;67.80;;;;;;6180142;23;45441;-70
2022/11/23 10:37:29;;;;;;;5.80;0.85;;;18.20;67.70;;;;;;6180383;23;45611;-69
2022/11/23 10:39:57;;;;;;;4.22;1.23;;;18.20;67.90;;;;;;6182649;23;45223;-70
2022/11/23 10:42:30;;;;;;;4.68;0.80;;;18.20;67.90;;;;;;6180435;23;45217;-72
2022/11/23 10:44:59;;;;;;;1.50;0.60;;;18.10;67.90;;;;;;6180064;23;47300;-70
2022/11/23 10:47:41;;;;;;;2.50;0.73;;;18.20;68.00;;;;;;6181359;23;45327;-70
2022/11/23 10:50:23;;;;;;;2.53;0.70;;;18.10;67.70;;;;;;6180715;23;45504;-70
2022/11/23 10:52:53;;;;;;;2.47;0.88;;;18.10;67.70;;;;;;6182287;23;45296;-71
2022/11/23 10:55:27;;;;;;;4.93;0.50;;;18.20;67.70;;;;;;6181516;23;47509;-70
2022/11/23 10:57:54;;;;;;;2.58;0.73;;;18.10;67.40;;;;;;6182670;23;45257;-72
2022/11/23 11:00:23;;;;;;;2.60;0.73;;;18.20;67.40;;;;;;6183620;23;45310;-71
2022/11/23 11:02:51;;;;;;;1.90;0.70;;;18.20;67.50;;;;;;6183018;23;45403;-70
2022/11/23 11:05:50;;;;;;;7.00;0.80;;;18.20;67.20;;;;;;6182807;23;47330;-70
2022/11/23 11:08:18;;;;;;;1.88;0.60;;;18.10;66.90;;;;;;6160098;23;45522;-71
2022/11/23 11:10:49;;;;;;;2.85;0.63;;;18.20;66.90;;;;;;6183034;23;45287;-70
2022/11/23 11:13:28;;;;;;;0.82;0.50;;;18.20;66.80;;;;;;6183527;23;45218;-70
2022/11/23 11:15:57;;;;;;;1.45;0.55;;;18.10;66.80;;;;;;6183293;23;46810;-70
2022/11/23 11:18:27;;;;;;;2.45;0.73;;;18.10;66.90;;;;;;6183460;23;45357;-70
2022/11/23 11:21:00;;;;;;;2.08;0.65;;;18.20;66.90;;;;;;6183319;23;45283;-70
2022/11/23 11:23:29;;;;;;;1.23;0.40;;;18.20;66.80;;;;;;6184322;23;45240;-70
2022/11/23 11:26:08;;;;;;;1.63;0.63;;;18.20;66.70;;;;;;6182689;23;45575;-70
2022/11/23 11:28:40;;;;;;;2.22;0.50;;;18.20;66.80;;;;;;6183823;23;45161;-70
2022/11/23 11:31:35;;;;;;;1.80;0.70;;;18.20;66.70;;;;;;6181437;23;45349;-70
2022/11/23 11:34:12;;;;;;;0.93;0.43;;;18.20;66.50;;;;;;6183179;23;45274;-71
2022/11/23 11:36:45;;;;;;;8.00;1.30;;;18.10;66.80;;;;;;6184237;23;47161;-71
2022/11/23 11:39:19;;;;;;;8.10;1.15;;;18.20;68.10;;;;;;6184753;23;45730;-72
2022/11/23 11:41:51;;;;;;;7.47;1.25;;;18.20;71.10;;;;;;6185547;23;45252;-73
2022/11/23 11:47:45;;;;;;;7.07;1.30;;;18.10;72.60;;;;;;6187119;23;45173;-74
2022/11/23 11:50:21;;;;;;;6.13;1.15;;;18.10;71.70;;;;;;6187124;23;45122;-74
2022/11/23 11:52:55;;;;;;;3.03;0.85;;;18.00;72.40;;;;;;6187180;23;45132;-74
2022/11/23 11:55:25;;;;;;;2.53;0.95;;;18.00;73.10;;;;;;6190834;23;45268;-74
2022/11/23 11:58:02;;;;;;;2.90;0.82;;;18.00;73.50;;;;;;6186569;23;45345;-74
2022/11/23 12:03:54;;;;;;;4.35;1.00;;;18.10;74.70;;;;;;6187357;23;45190;-75
2022/11/23 12:06:26;;;;;;;4.95;0.80;;;18.10;75.20;;;;;;6186785;22;45163;-75
2022/11/23 12:09:01;;;;;;;4.32;0.85;;;18.00;75.10;;;;;;6186731;23;45498;-75
2022/11/23 12:11:28;;;;;;;1.75;0.82;;;18.00;75.40;;;;;;6187317;23;45522;-75
2022/11/23 12:14:01;;;;;;;2.08;0.90;;;18.00;76.10;;;;;;6186899;23;45193;-75
2022/11/23 12:16:38;;;;;;;4.28;0.88;;;18.00;76.50;;;;;;6187066;23;45014;-75
2022/11/23 12:19:14;;;;;;;2.08;0.68;;;18.00;76.50;;;;;;6187217;23;47528;-75
2022/11/23 12:22:02;;;;;;;2.50;0.90;;;18.00;76.50;;;;;;6187184;23;45324;-74
2022/11/23 12:24:41;;;;;;;2.10;0.93;;;18.00;76.50;;;;;;6187407;23;45200;-74
2022/11/23 12:27:18;;;;;;;4.57;0.80;;;18.00;76.50;;;;;;6187396;23;45094;-75
2022/11/23 12:30:01;;;;;;;3.10;0.88;;;18.00;76.90;;;;;;6186757;23;45291;-75
2022/11/23 12:32:40;;;;;;;1.10;0.60;;;18.00;77.50;;;;;;6186731;23;45091;-75
2022/11/23 12:35:37;;;;;;;1.95;0.52;;;17.90;78.00;;;;;;6186698;23;45318;-75
2022/11/23 12:38:16;;;;;;;1.60;0.65;;;17.90;77.30;;;;;;6186998;23;45225;-75
2022/11/23 12:41:16;;;;;;;2.17;0.63;;;17.90;78.30;;;;;;6186561;23;45777;-75
2022/11/23 12:43:57;;;;;;;1.75;0.63;;;17.90;78.30;;;;;;6179373;23;45180;-75
2022/11/23 12:46:34;;;;;;;1.58;0.57;;;17.90;78.90;;;;;;6187519;23;45250;-75
2022/11/23 12:49:14;;;;;;;3.20;0.60;;;17.90;79.00;;;;;;6186762;23;45219;-76
2022/11/23 12:51:48;;;;;;;3.50;0.52;;;17.90;78.80;;;;;;6186836;23;46257;-75
2022/11/23 12:57:42;;;;;;;0.85;0.40;;;17.90;79.50;;;;;;6187042;23;45191;-76
2022/11/23 13:00:16;;;;;;;1.67;0.68;;;17.90;79.50;;;;;;6186819;23;45495;-76
2022/11/23 13:03:17;;;;;;;2.55;0.85;;;17.90;80.20;;;;;;6186707;23;46968;-74
2022/11/23 13:06:07;;;;;;;1.05;0.30;;;17.90;80.40;;;;;;6186336;23;45178;-75
2022/11/23 13:08:59;;;;;;;1.52;0.47;;;17.90;81.40;;;;;;6186283;23;45168;-77
2022/11/23 13:11:42;;;;;;;1.92;0.60;;;17.90;81.60;;;;;;6187061;23;45370;-77